sensor_id;sensor_type;location;lat;lon;timestamp;P1;durP1;ratioP1;P2;durP2;ratioP2
15071;SDS011;7635;56.696;13.002;2024-03-22T00:00:59;4.25;;;1.17;;
15071;SDS011;7635;56.696;13.002;2024-03-22T00:03:26;2.38;;;0.90;;
15071;SDS011;7635;56.696;13.002;2024-03-22T00:05:54;1.63;;;1.33;;
15071;SDS011;7635;56.696;13.002;2024-03-22T00:08:20;1.83;;;1.13;;
15071;SDS011;7635;56.696;13.002;2024-03-22T00:10:47;2.38;;;0.95;;
15071;SDS011;7635;56.696;13.002;2024-03-22T00:13:14;0.88;;;0.88;;
15071;SDS011;7635;56.696;13.002;2024-03-22T00:15:41;1.15;;;1.08;;
15071;SDS011;7635;56.696;13.002;2024-03-22T00:18:09;0.77;;;0.65;;
15071;SDS011;7635;56.696;13.002;2024-03-22T00:20:37;1.65;;;1.00;;
15071;SDS011;7635;56.696;13.002;2024-03-22T00:23:03;0.70;;;0.70;;
15071;SDS011;7635;56.696;13.002;2024-03-22T00:25:30;1.48;;;1.00;;
15071;SDS011;7635;56.696;13.002;2024-03-22T00:27:57;1.48;;;0.63;;
15071;SDS011;7635;56.696;13.002;2024-03-22T00:30:24;0.63;;;0.60;;
15071;SDS011;7635;56.696;13.002;2024-03-22T00:32:50;1.03;;;0.97;;
15071;SDS011;7635;56.696;13.002;2024-03-22T00:35:17;1.08;;;0.95;;
15071;SDS011;7635;56.696;13.002;2024-03-22T00:37:45;2.25;;;1.05;;
15071;SDS011;7635;56.696;13.002;2024-03-22T00:40:12;0.87;;;0.87;;
15071;SDS011;7635;56.696;13.002;2024-03-22T00:42:38;0.82;;;0.77;;
15071;SDS011;7635;56.696;13.002;2024-03-22T00:45:05;0.52;;;0.47;;
15071;SDS011;7635;56.696;13.002;2024-03-22T00:47:31;2.55;;;1.50;;
15071;SDS011;7635;56.696;13.002;2024-03-22T00:49:58;1.33;;;0.95;;
15071;SDS011;7635;56.696;13.002;2024-03-22T00:52:26;0.90;;;0.90;;
15071;SDS011;7635;56.696;13.002;2024-03-22T00:54:55;1.73;;;1.05;;
15071;SDS011;7635;56.696;13.002;2024-03-22T00:57:21;2.00;;;1.25;;
15071;SDS011;7635;56.696;13.002;2024-03-22T00:59:48;1.08;;;0.90;;
15071;SDS011;7635;56.696;13.002;2024-03-22T01:02:14;2.28;;;1.20;;
15071;SDS011;7635;56.696;13.002;2024-03-22T01:04:41;0.65;;;0.65;;
15071;SDS011;7635;56.696;13.002;2024-03-22T01:07:07;2.85;;;1.63;;
15071;SDS011;7635;56.696;13.002;2024-03-22T01:09:34;2.07;;;1.00;;
15071;SDS011;7635;56.696;13.002;2024-03-22T01:12:02;1.25;;;1.17;;
15071;SDS011;7635;56.696;13.002;2024-03-22T01:14:30;0.60;;;0.60;;
15071;SDS011;7635;56.696;13.002;2024-03-22T01:16:56;0.55;;;0.55;;
15071;SDS011;7635;56.696;13.002;2024-03-22T01:19:23;0.90;;;0.90;;
15071;SDS011;7635;56.696;13.002;2024-03-22T01:21:49;2.05;;;1.40;;
15071;SDS011;7635;56.696;13.002;2024-03-22T01:24:16;2.38;;;1.38;;
15071;SDS011;7635;56.696;13.002;2024-03-22T01:26:42;1.73;;;1.20;;
15071;SDS011;7635;56.696;13.002;2024-03-22T01:29:11;1.33;;;1.20;;
15071;SDS011;7635;56.696;13.002;2024-03-22T01:31:37;1.50;;;1.00;;
15071;SDS011;7635;56.696;13.002;2024-03-22T01:34:04;2.22;;;1.77;;
15071;SDS011;7635;56.696;13.002;2024-03-22T01:36:30;1.00;;;1.00;;
15071;SDS011;7635;56.696;13.002;2024-03-22T01:38:57;1.40;;;1.30;;
15071;SDS011;7635;56.696;13.002;2024-03-22T01:41:23;4.90;;;2.08;;
15071;SDS011;7635;56.696;13.002;2024-03-22T01:43:50;1.92;;;1.35;;
15071;SDS011;7635;56.696;13.002;2024-03-22T01:46:18;2.72;;;1.67;;
15071;SDS011;7635;56.696;13.002;2024-03-22T01:48:45;0.77;;;0.77;;
15071;SDS011;7635;56.696;13.002;2024-03-22T01:51:11;3.67;;;1.83;;
15071;SDS011;7635;56.696;13.002;2024-03-22T01:53:38;0.80;;;0.40;;
15071;SDS011;7635;56.696;13.002;2024-03-22T01:56:05;0.70;;;0.70;;
15071;SDS011;7635;56.696;13.002;2024-03-22T01:58:32;1.67;;;1.58;;
15071;SDS011;7635;56.696;13.002;2024-03-22T02:00:58;1.45;;;1.35;;
15071;SDS011;7635;56.696;13.002;2024-03-22T02:03:28;1.85;;;1.65;;
15071;SDS011;7635;56.696;13.002;2024-03-22T02:05:55;0.80;;;0.80;;
15071;SDS011;7635;56.696;13.002;2024-03-22T02:08:22;1.77;;;1.55;;
15071;SDS011;7635;56.696;13.002;2024-03-22T02:10:48;2.25;;;1.70;;
15071;SDS011;7635;56.696;13.002;2024-03-22T02:13:16;3.00;;;1.70;;
15071;SDS011;7635;56.696;13.002;2024-03-22T02:15:42;1.80;;;1.65;;
15071;SDS011;7635;56.696;13.002;2024-03-22T02:18:09;1.77;;;1.55;;
15071;SDS011;7635;56.696;13.002;2024-03-22T02:20:36;0.77;;;0.77;;
15071;SDS011;7635;56.696;13.002;2024-03-22T02:23:03;1.20;;;1.05;;
15071;SDS011;7635;56.696;13.002;2024-03-22T02:25:31;5.13;;;1.97;;
15071;SDS011;7635;56.696;13.002;2024-03-22T02:27:58;4.95;;;2.50;;
15071;SDS011;7635;56.696;13.002;2024-03-22T02:30:24;2.95;;;1.63;;
15071;SDS011;7635;56.696;13.002;2024-03-22T02:32:51;3.28;;;2.00;;
15071;SDS011;7635;56.696;13.002;2024-03-22T02:35:17;2.05;;;1.23;;
15071;SDS011;7635;56.696;13.002;2024-03-22T02:37:44;5.00;;;2.50;;
15071;SDS011;7635;56.696;13.002;2024-03-22T02:40:11;2.38;;;1.80;;
15071;SDS011;7635;56.696;13.002;2024-03-22T02:42:39;1.30;;;1.13;;
15071;SDS011;7635;56.696;13.002;2024-03-22T02:45:06;3.72;;;1.98;;
15071;SDS011;7635;56.696;13.002;2024-03-22T02:47:32;1.90;;;1.55;;
15071;SDS011;7635;56.696;13.002;2024-03-22T02:49:59;2.10;;;1.48;;
15071;SDS011;7635;56.696;13.002;2024-03-22T02:52:25;2.30;;;1.90;;
15071;SDS011;7635;56.696;13.002;2024-03-22T02:54:52;2.65;;;2.13;;
15071;SDS011;7635;56.696;13.002;2024-03-22T02:57:18;1.52;;;1.42;;
15071;SDS011;7635;56.696;13.002;2024-03-22T02:59:47;3.23;;;1.90;;
15071;SDS011;7635;56.696;13.002;2024-03-22T03:02:13;4.10;;;2.17;;
15071;SDS011;7635;56.696;13.002;2024-03-22T03:04:40;5.35;;;3.30;;
15071;SDS011;7635;56.696;13.002;2024-03-22T03:07:07;3.60;;;2.40;;
15071;SDS011;7635;56.696;13.002;2024-03-22T03:09:34;3.88;;;1.52;;
15071;SDS011;7635;56.696;13.002;2024-03-22T03:12:00;0.67;;;0.67;;
15071;SDS011;7635;56.696;13.002;2024-03-22T03:14:27;3.60;;;2.08;;
15071;SDS011;7635;56.696;13.002;2024-03-22T03:16:55;1.65;;;1.40;;
15071;SDS011;7635;56.696;13.002;2024-03-22T03:19:22;1.67;;;1.42;;
15071;SDS011;7635;56.696;13.002;2024-03-22T03:21:48;1.42;;;1.33;;
15071;SDS011;7635;56.696;13.002;2024-03-22T03:24:15;2.15;;;1.92;;
15071;SDS011;7635;56.696;13.002;2024-03-22T03:26:41;2.88;;;2.25;;
15071;SDS011;7635;56.696;13.002;2024-03-22T03:29:08;2.88;;;1.58;;
15071;SDS011;7635;56.696;13.002;2024-03-22T03:31:35;3.72;;;2.42;;
15071;SDS011;7635;56.696;13.002;2024-03-22T03:34:03;3.75;;;1.90;;
15071;SDS011;7635;56.696;13.002;2024-03-22T03:36:29;3.65;;;2.35;;
15071;SDS011;7635;56.696;13.002;2024-03-22T03:38:56;2.50;;;1.63;;
15071;SDS011;7635;56.696;13.002;2024-03-22T03:41:22;1.10;;;1.00;;
15071;SDS011;7635;56.696;13.002;2024-03-22T03:43:49;3.60;;;1.67;;
15071;SDS011;7635;56.696;13.002;2024-03-22T03:46:15;2.90;;;1.58;;
15071;SDS011;7635;56.696;13.002;2024-03-22T03:48:42;3.60;;;2.78;;
15071;SDS011;7635;56.696;13.002;2024-03-22T03:51:09;4.05;;;2.40;;
15071;SDS011;7635;56.696;13.002;2024-03-22T03:53:36;3.55;;;2.20;;
15071;SDS011;7635;56.696;13.002;2024-03-22T03:56:03;3.38;;;2.25;;
15071;SDS011;7635;56.696;13.002;2024-03-22T03:58:30;4.60;;;3.03;;
15071;SDS011;7635;56.696;13.002;2024-03-22T04:00:56;1.90;;;1.77;;
15071;SDS011;7635;56.696;13.002;2024-03-22T04:03:23;2.75;;;2.35;;
15071;SDS011;7635;56.696;13.002;2024-03-22T04:05:55;6.10;;;3.13;;
15071;SDS011;7635;56.696;13.002;2024-03-22T04:08:24;3.13;;;1.50;;
15071;SDS011;7635;56.696;13.002;2024-03-22T04:10:51;4.68;;;2.22;;
15071;SDS011;7635;56.696;13.002;2024-03-22T04:13:18;1.83;;;1.55;;
15071;SDS011;7635;56.696;13.002;2024-03-22T04:15:44;1.00;;;0.98;;
15071;SDS011;7635;56.696;13.002;2024-03-22T04:18:11;1.67;;;1.52;;
15071;SDS011;7635;56.696;13.002;2024-03-22T04:20:37;6.22;;;3.70;;
15071;SDS011;7635;56.696;13.002;2024-03-22T04:23:04;5.97;;;3.30;;
15071;SDS011;7635;56.696;13.002;2024-03-22T04:25:31;4.30;;;3.05;;
15071;SDS011;7635;56.696;13.002;2024-03-22T04:27:58;3.53;;;3.03;;
15071;SDS011;7635;56.696;13.002;2024-03-22T04:30:24;4.78;;;2.47;;
15071;SDS011;7635;56.696;13.002;2024-03-22T04:32:51;4.72;;;2.92;;
15071;SDS011;7635;56.696;13.002;2024-03-22T04:35:18;4.07;;;2.60;;
15071;SDS011;7635;56.696;13.002;2024-03-22T04:37:45;7.57;;;3.40;;
15071;SDS011;7635;56.696;13.002;2024-03-22T04:40:12;4.17;;;2.30;;
15071;SDS011;7635;56.696;13.002;2024-03-22T04:42:40;6.35;;;3.33;;
15071;SDS011;7635;56.696;13.002;2024-03-22T04:45:07;1.85;;;1.65;;
15071;SDS011;7635;56.696;13.002;2024-03-22T04:47:34;4.07;;;2.60;;
15071;SDS011;7635;56.696;13.002;2024-03-22T04:50:02;4.50;;;2.88;;
15071;SDS011;7635;56.696;13.002;2024-03-22T04:52:30;5.93;;;2.85;;
15071;SDS011;7635;56.696;13.002;2024-03-22T04:54:56;5.85;;;3.33;;
15071;SDS011;7635;56.696;13.002;2024-03-22T04:57:23;3.70;;;2.15;;
15071;SDS011;7635;56.696;13.002;2024-03-22T04:59:50;2.30;;;1.88;;
15071;SDS011;7635;56.696;13.002;2024-03-22T05:02:17;0.80;;;0.80;;
15071;SDS011;7635;56.696;13.002;2024-03-22T05:04:43;3.27;;;2.43;;
15071;SDS011;7635;56.696;13.002;2024-03-22T05:07:10;4.70;;;2.67;;
15071;SDS011;7635;56.696;13.002;2024-03-22T05:09:37;5.63;;;2.63;;
15071;SDS011;7635;56.696;13.002;2024-03-22T05:12:04;3.53;;;2.58;;
15071;SDS011;7635;56.696;13.002;2024-03-22T05:14:30;5.55;;;3.42;;
15071;SDS011;7635;56.696;13.002;2024-03-22T05:16:58;6.78;;;3.05;;
15071;SDS011;7635;56.696;13.002;2024-03-22T05:19:24;5.45;;;3.00;;
15071;SDS011;7635;56.696;13.002;2024-03-22T05:21:52;7.38;;;2.97;;
15071;SDS011;7635;56.696;13.002;2024-03-22T05:24:18;4.85;;;2.78;;
15071;SDS011;7635;56.696;13.002;2024-03-22T05:26:45;2.83;;;2.30;;
15071;SDS011;7635;56.696;13.002;2024-03-22T05:29:11;7.40;;;2.60;;
15071;SDS011;7635;56.696;13.002;2024-03-22T05:31:45;3.97;;;2.33;;
15071;SDS011;7635;56.696;13.002;2024-03-22T05:34:13;3.10;;;1.63;;
15071;SDS011;7635;56.696;13.002;2024-03-22T05:36:41;3.10;;;2.75;;
15071;SDS011;7635;56.696;13.002;2024-03-22T05:39:07;6.13;;;3.28;;
15071;SDS011;7635;56.696;13.002;2024-03-22T05:41:34;3.72;;;2.65;;
15071;SDS011;7635;56.696;13.002;2024-03-22T05:44:00;1.65;;;1.55;;
15071;SDS011;7635;56.696;13.002;2024-03-22T05:46:28;2.58;;;2.05;;
15071;SDS011;7635;56.696;13.002;2024-03-22T05:48:54;5.13;;;3.25;;
15071;SDS011;7635;56.696;13.002;2024-03-22T05:51:22;2.47;;;1.92;;
15071;SDS011;7635;56.696;13.002;2024-03-22T05:53:48;4.63;;;3.13;;
15071;SDS011;7635;56.696;13.002;2024-03-22T05:56:15;4.57;;;2.97;;
15071;SDS011;7635;56.696;13.002;2024-03-22T05:58:41;4.28;;;3.10;;
15071;SDS011;7635;56.696;13.002;2024-03-22T06:01:08;6.60;;;3.37;;
15071;SDS011;7635;56.696;13.002;2024-03-22T06:03:35;6.17;;;3.23;;
15071;SDS011;7635;56.696;13.002;2024-03-22T06:06:02;4.67;;;3.57;;
15071;SDS011;7635;56.696;13.002;2024-03-22T06:08:29;6.07;;;3.75;;
15071;SDS011;7635;56.696;13.002;2024-03-22T06:10:59;5.15;;;3.05;;
15071;SDS011;7635;56.696;13.002;2024-03-22T06:13:26;5.20;;;3.03;;
15071;SDS011;7635;56.696;13.002;2024-03-22T06:15:53;4.00;;;2.60;;
15071;SDS011;7635;56.696;13.002;2024-03-22T06:18:19;2.85;;;2.33;;
15071;SDS011;7635;56.696;13.002;2024-03-22T06:20:46;2.92;;;2.55;;
15071;SDS011;7635;56.696;13.002;2024-03-22T06:23:12;2.45;;;2.00;;
15071;SDS011;7635;56.696;13.002;2024-03-22T06:25:40;2.60;;;2.03;;
15071;SDS011;7635;56.696;13.002;2024-03-22T06:28:06;1.38;;;1.27;;
15071;SDS011;7635;56.696;13.002;2024-03-22T06:30:33;7.27;;;2.80;;
15071;SDS011;7635;56.696;13.002;2024-03-22T06:32:59;6.70;;;3.43;;
15071;SDS011;7635;56.696;13.002;2024-03-22T06:35:26;4.47;;;2.17;;
15071;SDS011;7635;56.696;13.002;2024-03-22T06:37:53;2.13;;;1.63;;
15071;SDS011;7635;56.696;13.002;2024-03-22T06:40:20;6.00;;;3.50;;
15071;SDS011;7635;56.696;13.002;2024-03-22T06:42:47;5.05;;;3.67;;
15071;SDS011;7635;56.696;13.002;2024-03-22T06:45:14;3.72;;;2.63;;
15071;SDS011;7635;56.696;13.002;2024-03-22T06:47:40;6.18;;;3.35;;
15071;SDS011;7635;56.696;13.002;2024-03-22T06:50:08;5.93;;;3.40;;
15071;SDS011;7635;56.696;13.002;2024-03-22T06:52:34;5.70;;;2.40;;
15071;SDS011;7635;56.696;13.002;2024-03-22T06:55:01;6.25;;;3.55;;
15071;SDS011;7635;56.696;13.002;2024-03-22T06:57:28;6.93;;;3.72;;
15071;SDS011;7635;56.696;13.002;2024-03-22T06:59:56;6.32;;;3.30;;
15071;SDS011;7635;56.696;13.002;2024-03-22T07:02:22;4.87;;;2.47;;
15071;SDS011;7635;56.696;13.002;2024-03-22T07:04:49;5.15;;;3.58;;
15071;SDS011;7635;56.696;13.002;2024-03-22T07:07:16;2.75;;;2.15;;
15071;SDS011;7635;56.696;13.002;2024-03-22T07:09:43;5.30;;;3.50;;
15071;SDS011;7635;56.696;13.002;2024-03-22T07:12:09;4.32;;;2.88;;
15071;SDS011;7635;56.696;13.002;2024-03-22T07:14:36;3.33;;;2.42;;
15071;SDS011;7635;56.696;13.002;2024-03-22T07:17:04;2.27;;;2.07;;
15071;SDS011;7635;56.696;13.002;2024-03-22T07:19:31;2.75;;;2.25;;
15071;SDS011;7635;56.696;13.002;2024-03-22T07:21:58;4.03;;;2.47;;
15071;SDS011;7635;56.696;13.002;2024-03-22T07:24:25;3.43;;;2.43;;
15071;SDS011;7635;56.696;13.002;2024-03-22T07:26:51;5.20;;;3.00;;
15071;SDS011;7635;56.696;13.002;2024-03-22T07:29:18;2.58;;;2.20;;
15071;SDS011;7635;56.696;13.002;2024-03-22T07:31:44;3.53;;;2.60;;
15071;SDS011;7635;56.696;13.002;2024-03-22T07:34:13;2.28;;;1.83;;
15071;SDS011;7635;56.696;13.002;2024-03-22T07:36:39;4.78;;;3.03;;
15071;SDS011;7635;56.696;13.002;2024-03-22T07:39:06;4.53;;;2.92;;
15071;SDS011;7635;56.696;13.002;2024-03-22T07:41:32;4.70;;;2.80;;
15071;SDS011;7635;56.696;13.002;2024-03-22T07:44:00;4.38;;;2.70;;
15071;SDS011;7635;56.696;13.002;2024-03-22T07:46:26;3.63;;;2.63;;
15071;SDS011;7635;56.696;13.002;2024-03-22T07:48:53;4.40;;;2.72;;
15071;SDS011;7635;56.696;13.002;2024-03-22T07:51:21;2.38;;;2.10;;
15071;SDS011;7635;56.696;13.002;2024-03-22T07:53:48;2.50;;;1.77;;
15071;SDS011;7635;56.696;13.002;2024-03-22T07:56:14;2.45;;;2.10;;
15071;SDS011;7635;56.696;13.002;2024-03-22T07:58:41;2.30;;;2.05;;
15071;SDS011;7635;56.696;13.002;2024-03-22T08:01:08;3.97;;;2.70;;
15071;SDS011;7635;56.696;13.002;2024-03-22T08:03:35;2.60;;;2.08;;
15071;SDS011;7635;56.696;13.002;2024-03-22T08:06:01;2.75;;;1.80;;
15071;SDS011;7635;56.696;13.002;2024-03-22T08:08:30;1.40;;;1.30;;
15071;SDS011;7635;56.696;13.002;2024-03-22T08:10:56;2.20;;;1.95;;
15071;SDS011;7635;56.696;13.002;2024-03-22T08:13:23;1.77;;;1.67;;
15071;SDS011;7635;56.696;13.002;2024-03-22T08:15:49;2.07;;;1.83;;
15071;SDS011;7635;56.696;13.002;2024-03-22T08:18:16;3.88;;;2.55;;
15071;SDS011;7635;56.696;13.002;2024-03-22T08:20:42;1.83;;;1.67;;
15071;SDS011;7635;56.696;13.002;2024-03-22T08:23:09;2.40;;;1.73;;
15071;SDS011;7635;56.696;13.002;2024-03-22T08:25:37;4.38;;;2.38;;
15071;SDS011;7635;56.696;13.002;2024-03-22T08:28:04;3.10;;;2.20;;
15071;SDS011;7635;56.696;13.002;2024-03-22T08:30:30;1.85;;;1.45;;
15071;SDS011;7635;56.696;13.002;2024-03-22T08:32:57;6.28;;;3.13;;
15071;SDS011;7635;56.696;13.002;2024-03-22T08:35:24;3.40;;;2.40;;
15071;SDS011;7635;56.696;13.002;2024-03-22T08:37:51;3.23;;;2.30;;
15071;SDS011;7635;56.696;13.002;2024-03-22T08:40:17;2.58;;;1.85;;
15071;SDS011;7635;56.696;13.002;2024-03-22T08:42:45;4.38;;;2.17;;
15071;SDS011;7635;56.696;13.002;2024-03-22T08:45:11;6.18;;;2.95;;
15071;SDS011;7635;56.696;13.002;2024-03-22T08:47:38;3.45;;;2.97;;
15071;SDS011;7635;56.696;13.002;2024-03-22T08:50:05;3.53;;;1.95;;
15071;SDS011;7635;56.696;13.002;2024-03-22T08:52:32;3.90;;;2.33;;
15071;SDS011;7635;56.696;13.002;2024-03-22T08:55:00;1.85;;;1.50;;
15071;SDS011;7635;56.696;13.002;2024-03-22T08:57:29;2.63;;;1.88;;
15071;SDS011;7635;56.696;13.002;2024-03-22T08:59:57;3.97;;;2.75;;
15071;SDS011;7635;56.696;13.002;2024-03-22T09:02:24;4.95;;;3.00;;
15071;SDS011;7635;56.696;13.002;2024-03-22T09:04:50;3.25;;;2.45;;
15071;SDS011;7635;56.696;13.002;2024-03-22T09:07:18;3.38;;;2.35;;
15071;SDS011;7635;56.696;13.002;2024-03-22T09:09:44;3.33;;;2.10;;
15071;SDS011;7635;56.696;13.002;2024-03-22T09:12:11;4.50;;;2.42;;
15071;SDS011;7635;56.696;13.002;2024-03-22T09:14:37;2.40;;;1.92;;
15071;SDS011;7635;56.696;13.002;2024-03-22T09:17:06;3.83;;;2.47;;
15071;SDS011;7635;56.696;13.002;2024-03-22T09:19:32;3.08;;;1.73;;
15071;SDS011;7635;56.696;13.002;2024-03-22T09:21:59;7.32;;;2.22;;
15071;SDS011;7635;56.696;13.002;2024-03-22T09:24:25;2.38;;;1.60;;
15071;SDS011;7635;56.696;13.002;2024-03-22T09:26:52;2.90;;;1.88;;
15071;SDS011;7635;56.696;13.002;2024-03-22T09:29:18;4.00;;;2.13;;
15071;SDS011;7635;56.696;13.002;2024-03-22T09:31:45;1.17;;;1.08;;
15071;SDS011;7635;56.696;13.002;2024-03-22T09:34:13;2.05;;;1.80;;
15071;SDS011;7635;56.696;13.002;2024-03-22T09:36:41;2.60;;;1.80;;
15071;SDS011;7635;56.696;13.002;2024-03-22T09:39:07;2.40;;;1.80;;
15071;SDS011;7635;56.696;13.002;2024-03-22T09:41:34;2.05;;;1.50;;
15071;SDS011;7635;56.696;13.002;2024-03-22T09:44:03;3.47;;;1.40;;
15071;SDS011;7635;56.696;13.002;2024-03-22T09:46:31;2.58;;;1.70;;
15071;SDS011;7635;56.696;13.002;2024-03-22T09:48:57;4.07;;;1.70;;
15071;SDS011;7635;56.696;13.002;2024-03-22T09:51:26;3.23;;;2.67;;
15071;SDS011;7635;56.696;13.002;2024-03-22T09:53:53;1.70;;;1.60;;
15071;SDS011;7635;56.696;13.002;2024-03-22T09:56:20;3.65;;;1.98;;
15071;SDS011;7635;56.696;13.002;2024-03-22T09:58:47;1.35;;;1.25;;
15071;SDS011;7635;56.696;13.002;2024-03-22T10:01:14;2.40;;;1.42;;
15071;SDS011;7635;56.696;13.002;2024-03-22T10:03:41;2.38;;;1.92;;
15071;SDS011;7635;56.696;13.002;2024-03-22T10:06:08;2.13;;;1.40;;
15071;SDS011;7635;56.696;13.002;2024-03-22T10:08:36;0.68;;;0.65;;
15071;SDS011;7635;56.696;13.002;2024-03-22T10:11:03;2.05;;;1.70;;
15071;SDS011;7635;56.696;13.002;2024-03-22T10:13:29;2.38;;;1.45;;
15071;SDS011;7635;56.696;13.002;2024-03-22T10:15:56;1.98;;;1.80;;
15071;SDS011;7635;56.696;13.002;2024-03-22T10:18:22;1.60;;;1.42;;
15071;SDS011;7635;56.696;13.002;2024-03-22T10:20:58;1.08;;;1.02;;
15071;SDS011;7635;56.696;13.002;2024-03-22T10:23:25;4.22;;;2.38;;
15071;SDS011;7635;56.696;13.002;2024-03-22T10:25:53;1.60;;;1.50;;
15071;SDS011;7635;56.696;13.002;2024-03-22T10:28:19;3.20;;;1.30;;
15071;SDS011;7635;56.696;13.002;2024-03-22T10:30:47;2.27;;;1.57;;
15071;SDS011;7635;56.696;13.002;2024-03-22T10:33:14;2.72;;;1.48;;
15071;SDS011;7635;56.696;13.002;2024-03-22T10:35:41;1.98;;;0.93;;
15071;SDS011;7635;56.696;13.002;2024-03-22T10:38:09;5.82;;;1.85;;
15071;SDS011;7635;56.696;13.002;2024-03-22T10:40:37;1.43;;;1.33;;
15071;SDS011;7635;56.696;13.002;2024-03-22T10:43:04;2.63;;;1.73;;
15071;SDS011;7635;56.696;13.002;2024-03-22T10:45:32;3.38;;;1.85;;
15071;SDS011;7635;56.696;13.002;2024-03-22T10:47:58;1.30;;;1.20;;
15071;SDS011;7635;56.696;13.002;2024-03-22T10:50:28;1.67;;;1.20;;
15071;SDS011;7635;56.696;13.002;2024-03-22T10:52:56;3.00;;;1.65;;
15071;SDS011;7635;56.696;13.002;2024-03-22T10:55:26;4.85;;;1.42;;
15071;SDS011;7635;56.696;13.002;2024-03-22T10:57:53;3.60;;;2.10;;
15071;SDS011;7635;56.696;13.002;2024-03-22T11:00:28;3.80;;;1.70;;
15071;SDS011;7635;56.696;13.002;2024-03-22T11:02:54;4.32;;;1.90;;
15071;SDS011;7635;56.696;13.002;2024-03-22T11:05:22;3.03;;;1.75;;
15071;SDS011;7635;56.696;13.002;2024-03-22T11:07:57;1.27;;;1.17;;
15071;SDS011;7635;56.696;13.002;2024-03-22T11:10:26;2.13;;;1.33;;
15071;SDS011;7635;56.696;13.002;2024-03-22T11:12:52;1.98;;;1.65;;
15071;SDS011;7635;56.696;13.002;2024-03-22T11:15:19;2.90;;;1.60;;
15071;SDS011;7635;56.696;13.002;2024-03-22T11:17:47;3.08;;;1.83;;
15071;SDS011;7635;56.696;13.002;2024-03-22T11:20:14;5.40;;;2.10;;
15071;SDS011;7635;56.696;13.002;2024-03-22T11:22:40;2.58;;;2.00;;
15071;SDS011;7635;56.696;13.002;2024-03-22T11:25:07;2.03;;;1.85;;
15071;SDS011;7635;56.696;13.002;2024-03-22T11:27:34;2.67;;;1.77;;
15071;SDS011;7635;56.696;13.002;2024-03-22T11:30:01;2.78;;;1.95;;
15071;SDS011;7635;56.696;13.002;2024-03-22T11:32:27;2.40;;;1.85;;
15071;SDS011;7635;56.696;13.002;2024-03-22T11:34:55;3.88;;;2.15;;
15071;SDS011;7635;56.696;13.002;2024-03-22T11:37:22;5.55;;;2.42;;
15071;SDS011;7635;56.696;13.002;2024-03-22T11:39:49;8.82;;;2.10;;
15071;SDS011;7635;56.696;13.002;2024-03-22T11:42:15;3.25;;;1.95;;
15071;SDS011;7635;56.696;13.002;2024-03-22T11:44:42;4.22;;;2.25;;
15071;SDS011;7635;56.696;13.002;2024-03-22T11:47:08;5.82;;;2.42;;
15071;SDS011;7635;56.696;13.002;2024-03-22T11:49:35;3.15;;;2.22;;
15071;SDS011;7635;56.696;13.002;2024-03-22T11:52:03;1.35;;;1.23;;
15071;SDS011;7635;56.696;13.002;2024-03-22T11:54:30;7.05;;;2.13;;
15071;SDS011;7635;56.696;13.002;2024-03-22T11:56:56;2.38;;;1.73;;
15071;SDS011;7635;56.696;13.002;2024-03-22T11:59:23;6.90;;;2.43;;
15071;SDS011;7635;56.696;13.002;2024-03-22T12:01:49;4.80;;;2.17;;
15071;SDS011;7635;56.696;13.002;2024-03-22T12:04:16;1.95;;;0.85;;
15071;SDS011;7635;56.696;13.002;2024-03-22T12:06:44;3.30;;;2.47;;
15071;SDS011;7635;56.696;13.002;2024-03-22T12:09:11;2.35;;;1.67;;
15071;SDS011;7635;56.696;13.002;2024-03-22T12:11:38;6.50;;;2.10;;
15071;SDS011;7635;56.696;13.002;2024-03-22T12:14:05;4.45;;;2.10;;
15071;SDS011;7635;56.696;13.002;2024-03-22T12:16:32;4.47;;;2.50;;
15071;SDS011;7635;56.696;13.002;2024-03-22T12:18:58;3.38;;;2.30;;
15071;SDS011;7635;56.696;13.002;2024-03-22T12:21:25;1.63;;;1.53;;
15071;SDS011;7635;56.696;13.002;2024-03-22T12:23:51;1.42;;;1.33;;
15071;SDS011;7635;56.696;13.002;2024-03-22T12:26:19;2.17;;;1.98;;
15071;SDS011;7635;56.696;13.002;2024-03-22T12:28:45;53.05;;;3.15;;
15071;SDS011;7635;56.696;13.002;2024-03-22T12:31:12;4.82;;;2.50;;
15071;SDS011;7635;56.696;13.002;2024-03-22T12:33:38;7.63;;;2.60;;
15071;SDS011;7635;56.696;13.002;2024-03-22T12:36:05;3.67;;;1.60;;
15071;SDS011;7635;56.696;13.002;2024-03-22T12:38:32;3.03;;;1.67;;
15071;SDS011;7635;56.696;13.002;2024-03-22T12:40:59;2.95;;;1.58;;
15071;SDS011;7635;56.696;13.002;2024-03-22T12:43:26;2.50;;;1.48;;
15071;SDS011;7635;56.696;13.002;2024-03-22T12:45:53;3.10;;;0.88;;
15071;SDS011;7635;56.696;13.002;2024-03-22T12:48:19;2.95;;;1.80;;
15071;SDS011;7635;56.696;13.002;2024-03-22T12:50:46;3.72;;;2.22;;
15071;SDS011;7635;56.696;13.002;2024-03-22T12:53:12;2.42;;;1.58;;
15071;SDS011;7635;56.696;13.002;2024-03-22T12:55:39;1.98;;;1.33;;
15071;SDS011;7635;56.696;13.002;2024-03-22T12:58:05;3.67;;;1.83;;
15071;SDS011;7635;56.696;13.002;2024-03-22T13:00:34;1.87;;;1.07;;
15071;SDS011;7635;56.696;13.002;2024-03-22T13:03:00;2.30;;;2.10;;
15071;SDS011;7635;56.696;13.002;2024-03-22T13:05:27;1.55;;;1.45;;
15071;SDS011;7635;56.696;13.002;2024-03-22T13:07:53;4.78;;;2.08;;
15071;SDS011;7635;56.696;13.002;2024-03-22T13:10:20;3.20;;;2.00;;
15071;SDS011;7635;56.696;13.002;2024-03-22T13:12:46;3.08;;;1.50;;
15071;SDS011;7635;56.696;13.002;2024-03-22T13:15:13;4.15;;;2.38;;
15071;SDS011;7635;56.696;13.002;2024-03-22T13:17:41;2.75;;;2.15;;
15071;SDS011;7635;56.696;13.002;2024-03-22T13:20:08;2.78;;;1.73;;
15071;SDS011;7635;56.696;13.002;2024-03-22T13:22:35;8.90;;;2.28;;
15071;SDS011;7635;56.696;13.002;2024-03-22T13:25:02;1.55;;;1.33;;
15071;SDS011;7635;56.696;13.002;2024-03-22T13:27:32;4.55;;;1.63;;
15071;SDS011;7635;56.696;13.002;2024-03-22T13:29:59;8.27;;;2.00;;
15071;SDS011;7635;56.696;13.002;2024-03-22T13:32:25;3.00;;;1.83;;
15071;SDS011;7635;56.696;13.002;2024-03-22T13:34:53;4.25;;;1.67;;
15071;SDS011;7635;56.696;13.002;2024-03-22T13:37:20;6.03;;;1.73;;
15071;SDS011;7635;56.696;13.002;2024-03-22T13:39:47;3.78;;;2.08;;
15071;SDS011;7635;56.696;13.002;2024-03-22T13:42:14;3.90;;;1.92;;
15071;SDS011;7635;56.696;13.002;2024-03-22T13:44:41;3.53;;;2.05;;
15071;SDS011;7635;56.696;13.002;2024-03-22T13:47:07;2.33;;;1.40;;
15071;SDS011;7635;56.696;13.002;2024-03-22T13:49:34;5.05;;;1.92;;
15071;SDS011;7635;56.696;13.002;2024-03-22T13:52:02;4.50;;;2.08;;
15071;SDS011;7635;56.696;13.002;2024-03-22T13:54:29;5.10;;;2.20;;
15071;SDS011;7635;56.696;13.002;2024-03-22T13:56:55;2.80;;;1.98;;
15071;SDS011;7635;56.696;13.002;2024-03-22T13:59:22;2.47;;;1.40;;
15071;SDS011;7635;56.696;13.002;2024-03-22T14:01:48;4.30;;;2.10;;
15071;SDS011;7635;56.696;13.002;2024-03-22T14:04:15;2.07;;;1.80;;
15071;SDS011;7635;56.696;13.002;2024-03-22T14:06:42;3.47;;;1.65;;
15071;SDS011;7635;56.696;13.002;2024-03-22T14:09:10;3.83;;;1.83;;
15071;SDS011;7635;56.696;13.002;2024-03-22T14:11:38;6.32;;;2.22;;
15071;SDS011;7635;56.696;13.002;2024-03-22T14:14:06;2.50;;;1.60;;
15071;SDS011;7635;56.696;13.002;2024-03-22T14:16:32;3.30;;;1.60;;
15071;SDS011;7635;56.696;13.002;2024-03-22T14:19:00;5.82;;;2.28;;
15071;SDS011;7635;56.696;13.002;2024-03-22T14:21:26;6.00;;;1.88;;
15071;SDS011;7635;56.696;13.002;2024-03-22T14:23:53;5.53;;;1.08;;
15071;SDS011;7635;56.696;13.002;2024-03-22T14:26:21;2.60;;;1.70;;
15071;SDS011;7635;56.696;13.002;2024-03-22T14:28:49;5.60;;;2.20;;
15071;SDS011;7635;56.696;13.002;2024-03-22T14:31:16;5.35;;;1.80;;
15071;SDS011;7635;56.696;13.002;2024-03-22T14:33:43;3.47;;;1.90;;
15071;SDS011;7635;56.696;13.002;2024-03-22T14:36:09;6.13;;;2.20;;
15071;SDS011;7635;56.696;13.002;2024-03-22T14:38:37;4.80;;;2.47;;
15071;SDS011;7635;56.696;13.002;2024-03-22T14:41:03;5.82;;;2.20;;
15071;SDS011;7635;56.696;13.002;2024-03-22T14:43:31;3.13;;;1.98;;
15071;SDS011;7635;56.696;13.002;2024-03-22T14:45:59;4.57;;;1.73;;